sensor_id;sensor_type;location;lat;lon;timestamp;pressure;altitude;pressure_sealevel;temperature;humidity
55271;BME280;41132;47.162;9.470;2023-04-02T00:01:49;95909.91;;;7.05;100.00
55271;BME280;41132;47.162;9.470;2023-04-02T00:06:47;95911.97;;;7.01;100.00
55271;BME280;41132;47.162;9.470;2023-04-02T00:11:41;95900.94;;;6.89;100.00
55271;BME280;41132;47.162;9.470;2023-04-02T00:14:34;95909.13;;;6.95;100.00
55271;BME280;41132;47.162;9.470;2023-04-02T00:17:03;95916.38;;;7.01;100.00
55271;BME280;41132;47.162;9.470;2023-04-02T00:19:44;95917.03;;;6.85;100.00
55271;BME280;41132;47.162;9.470;2023-04-02T00:22:16;95915.91;;;6.87;100.00
55271;BME280;41132;47.162;9.470;2023-04-02T00:24:42;95915.66;;;6.90;100.00
55271;BME280;41132;47.162;9.470;2023-04-02T00:27:12;95917.44;;;7.08;100.00
55271;BME280;41132;47.162;9.470;2023-04-02T00:29:55;95919.75;;;6.93;100.00
55271;BME280;41132;47.162;9.470;2023-04-02T00:32:24;95921.22;;;6.96;100.00
55271;BME280;41132;47.162;9.470;2023-04-02T00:34:51;95916.00;;;6.96;100.00
55271;BME280;41132;47.162;9.470;2023-04-02T00:37:19;95912.81;;;7.02;100.00
55271;BME280;41132;47.162;9.470;2023-04-02T00:39:50;95916.31;;;7.10;100.00
55271;BME280;41132;47.162;9.470;2023-04-02T00:42:17;95909.97;;;6.95;100.00
55271;BME280;41132;47.162;9.470;2023-04-02T00:44:44;95906.75;;;7.01;100.00
55271;BME280;41132;47.162;9.470;2023-04-02T00:47:14;95908.47;;;6.93;100.00
55271;BME280;41132;47.162;9.470;2023-04-02T00:49:43;95910.66;;;6.97;100.00
55271;BME280;41132;47.162;9.470;2023-04-02T00:52:15;95916.59;;;6.89;100.00
55271;BME280;41132;47.162;9.470;2023-04-02T00:54:50;95903.19;;;6.84;100.00
55271;BME280;41132;47.162;9.470;2023-04-02T00:57:20;95898.63;;;6.86;100.00
55271;BME280;41132;47.162;9.470;2023-04-02T00:59:57;95902.09;;;7.05;100.00
55271;BME280;41132;47.162;9.470;2023-04-02T01:02:32;95893.50;;;6.95;100.00
55271;BME280;41132;47.162;9.470;2023-04-02T01:05:23;95892.69;;;6.94;100.00
55271;BME280;41132;47.162;9.470;2023-04-02T01:13:40;95899.81;;;6.92;100.00
55271;BME280;41132;47.162;9.470;2023-04-02T01:16:19;95894.75;;;6.73;100.00
55271;BME280;41132;47.162;9.470;2023-04-02T01:18:58;95903.00;;;6.68;100.00
55271;BME280;41132;47.162;9.470;2023-04-02T01:24:19;95899.72;;;6.66;100.00
55271;BME280;41132;47.162;9.470;2023-04-02T01:26:57;95912.09;;;6.64;100.00
55271;BME280;41132;47.162;9.470;2023-04-02T01:29:35;95906.19;;;6.62;100.00
55271;BME280;41132;47.162;9.470;2023-04-02T01:32:09;95908.22;;;6.68;100.00
55271;BME280;41132;47.162;9.470;2023-04-02T01:34:36;95928.41;;;6.66;100.00
55271;BME280;41132;47.162;9.470;2023-04-02T01:42:32;95940.66;;;6.56;100.00
55271;BME280;41132;47.162;9.470;2023-04-02T01:45:08;95940.66;;;6.56;100.00
55271;BME280;41132;47.162;9.470;2023-04-02T01:47:33;95934.50;;;6.57;100.00
55271;BME280;41132;47.162;9.470;2023-04-02T01:50:27;95940.19;;;6.70;100.00
55271;BME280;41132;47.162;9.470;2023-04-02T01:52:59;95929.84;;;6.78;100.00
55271;BME280;41132;47.162;9.470;2023-04-02T01:55:33;95937.53;;;6.80;100.00
55271;BME280;41132;47.162;9.470;2023-04-02T01:57:59;95937.53;;;6.80;100.00
55271;BME280;41132;47.162;9.470;2023-04-02T02:00:27;95935.50;;;6.74;100.00
55271;BME280;41132;47.162;9.470;2023-04-02T02:02:54;95933.38;;;6.59;100.00
55271;BME280;41132;47.162;9.470;2023-04-02T02:05:21;95939.53;;;6.58;100.00
55271;BME280;41132;47.162;9.470;2023-04-02T02:07:47;95940.63;;;6.65;100.00
55271;BME280;41132;47.162;9.470;2023-04-02T02:10:17;95939.28;;;6.61;100.00
55271;BME280;41132;47.162;9.470;2023-04-02T02:12:48;95939.53;;;6.68;100.00
55271;BME280;41132;47.162;9.470;2023-04-02T02:15:19;95935.78;;;6.71;100.00
55271;BME280;41132;47.162;9.470;2023-04-02T02:17:46;95943.38;;;6.64;100.00
55271;BME280;41132;47.162;9.470;2023-04-02T02:20:12;95948.50;;;6.18;100.00
55271;BME280;41132;47.162;9.470;2023-04-02T02:22:42;95937.22;;;6.27;100.00
55271;BME280;41132;47.162;9.470;2023-04-02T02:25:13;95933.72;;;6.09;100.00
55271;BME280;41132;47.162;9.470;2023-04-02T02:27:47;95933.53;;;6.11;100.00
55271;BME280;41132;47.162;9.470;2023-04-02T02:30:27;95942.28;;;6.29;100.00
55271;BME280;41132;47.162;9.470;2023-04-02T02:36:02;95939.47;;;6.50;100.00
55271;BME280;41132;47.162;9.470;2023-04-02T02:44:23;95947.47;;;6.66;100.00
55271;BME280;41132;47.162;9.470;2023-04-02T02:47:00;95941.78;;;6.53;100.00
55271;BME280;41132;47.162;9.470;2023-04-02T02:49:29;95954.13;;;6.51;100.00
55271;BME280;41132;47.162;9.470;2023-04-02T02:54:35;95959.06;;;6.54;100.00
55271;BME280;41132;47.162;9.470;2023-04-02T02:57:06;95957.22;;;6.64;100.00
55271;BME280;41132;47.162;9.470;2023-04-02T02:59:33;95966.47;;;6.59;100.00
55271;BME280;41132;47.162;9.470;2023-04-02T03:02:00;95964.59;;;6.41;100.00
55271;BME280;41132;47.162;9.470;2023-04-02T03:04:26;95965.84;;;6.37;100.00
55271;BME280;41132;47.162;9.470;2023-04-02T03:06:56;95963.97;;;6.20;100.00
55271;BME280;41132;47.162;9.470;2023-04-02T03:09:57;95971.59;;;6.41;100.00
55271;BME280;41132;47.162;9.470;2023-04-02T03:12:38;95973.38;;;6.40;100.00
55271;BME280;41132;47.162;9.470;2023-04-02T03:15:17;95968.16;;;6.40;100.00
55271;BME280;41132;47.162;9.470;2023-04-02T03:17:53;95975.63;;;6.63;100.00
55271;BME280;41132;47.162;9.470;2023-04-02T03:20:33;95967.03;;;6.53;100.00
55271;BME280;41132;47.162;9.470;2023-04-02T03:23:38;95982.28;;;6.38;100.00
55271;BME280;41132;47.162;9.470;2023-04-02T03:26:38;95975.97;;;6.40;100.00
55271;BME280;41132;47.162;9.470;2023-04-02T03:29:15;95983.91;;;6.48;100.00
55271;BME280;41132;47.162;9.470;2023-04-02T03:31:48;95979.81;;;6.46;100.00
55271;BME280;41132;47.162;9.470;2023-04-02T03:34:32;95980.28;;;6.32;100.00
55271;BME280;41132;47.162;9.470;2023-04-02T03:37:01;95990.75;;;6.02;100.00
55271;BME280;41132;47.162;9.470;2023-04-02T03:39:38;95992.66;;;6.10;100.00
55271;BME280;41132;47.162;9.470;2023-04-02T03:42:13;95995.94;;;6.12;100.00
55271;BME280;41132;47.162;9.470;2023-04-02T03:47:45;96002.53;;;6.16;100.00
55271;BME280;41132;47.162;9.470;2023-04-02T03:50:27;96003.22;;;6.18;100.00
55271;BME280;41132;47.162;9.470;2023-04-02T03:52:57;96006.06;;;6.35;100.00
55271;BME280;41132;47.162;9.470;2023-04-02T03:55:29;95995.22;;;6.30;100.00
55271;BME280;41132;47.162;9.470;2023-04-02T03:58:12;96009.63;;;6.24;100.00
55271;BME280;41132;47.162;9.470;2023-04-02T04:03:16;96014.16;;;6.22;100.00
55271;BME280;41132;47.162;9.470;2023-04-02T04:06:15;96020.88;;;6.34;100.00
55271;BME280;41132;47.162;9.470;2023-04-02T04:08:50;96019.22;;;6.33;100.00
55271;BME280;41132;47.162;9.470;2023-04-02T04:12:06;96024.44;;;6.23;100.00
55271;BME280;41132;47.162;9.470;2023-04-02T04:14:41;96029.97;;;6.20;100.00
55271;BME280;41132;47.162;9.470;2023-04-02T04:17:16;96032.00;;;6.17;100.00
55271;BME280;41132;47.162;9.470;2023-04-02T04:20:17;96025.72;;;6.10;100.00
55271;BME280;41132;47.162;9.470;2023-04-02T04:22:48;96024.28;;;6.35;100.00
55271;BME280;41132;47.162;9.470;2023-04-02T04:25:25;96014.25;;;6.40;100.00
55271;BME280;41132;47.162;9.470;2023-04-02T04:28:12;96015.63;;;6.44;100.00
55271;BME280;41132;47.162;9.470;2023-04-02T04:30:59;96026.22;;;6.33;100.00
55271;BME280;41132;47.162;9.470;2023-04-02T04:33:31;96036.81;;;6.21;100.00
55271;BME280;41132;47.162;9.470;2023-04-02T04:36:05;96043.56;;;6.04;100.00
55271;BME280;41132;47.162;9.470;2023-04-02T04:38:48;96047.50;;;6.09;100.00
55271;BME280;41132;47.162;9.470;2023-04-02T04:41:22;96046.97;;;6.15;100.00
55271;BME280;41132;47.162;9.470;2023-04-02T04:44:01;96045.16;;;6.25;100.00
55271;BME280;41132;47.162;9.470;2023-04-02T04:49:44;96047.50;;;6.28;100.00
55271;BME280;41132;47.162;9.470;2023-04-02T04:52:28;96052.00;;;6.26;100.00
55271;BME280;41132;47.162;9.470;2023-04-02T04:54:56;96038.97;;;6.26;100.00
55271;BME280;41132;47.162;9.470;2023-04-02T04:57:30;96058.59;;;6.30;100.00
55271;BME280;41132;47.162;9.470;2023-04-02T05:00:26;96061.06;;;6.22;100.00
55271;BME280;41132;47.162;9.470;2023-04-02T05:03:32;96062.59;;;6.15;100.00
55271;BME280;41132;47.162;9.470;2023-04-02T05:06:10;96075.78;;;6.13;100.00
55271;BME280;41132;47.162;9.470;2023-04-02T05:08:43;96070.03;;;6.00;100.00
55271;BME280;41132;47.162;9.470;2023-04-02T05:11:14;96079.75;;;5.98;100.00
55271;BME280;41132;47.162;9.470;2023-04-02T05:13:52;96090.84;;;6.10;100.00
55271;BME280;41132;47.162;9.470;2023-04-02T05:16:22;96093.13;;;5.83;100.00
55271;BME280;41132;47.162;9.470;2023-04-02T05:21:39;96100.13;;;5.73;100.00
55271;BME280;41132;47.162;9.470;2023-04-02T05:26:52;96110.31;;;5.96;100.00
55271;BME280;41132;47.162;9.470;2023-04-02T05:29:25;96106.19;;;6.13;100.00
55271;BME280;41132;47.162;9.470;2023-04-02T05:39:43;96116.22;;;6.27;100.00
55271;BME280;41132;47.162;9.470;2023-04-02T05:42:18;96115.41;;;6.36;100.00
55271;BME280;41132;47.162;9.470;2023-04-02T05:47:30;96119.59;;;6.66;100.00
55271;BME280;41132;47.162;9.470;2023-04-02T05:52:33;96121.81;;;6.52;100.00
55271;BME280;41132;47.162;9.470;2023-04-02T06:10:27;96132.66;;;6.37;100.00
55271;BME280;41132;47.162;9.470;2023-04-02T06:12:56;96123.47;;;6.33;100.00
55271;BME280;41132;47.162;9.470;2023-04-02T06:15:28;96125.38;;;6.51;100.00
55271;BME280;41132;47.162;9.470;2023-04-02T06:18:07;96131.00;;;6.56;100.00
55271;BME280;41132;47.162;9.470;2023-04-02T06:20:33;96130.56;;;6.70;100.00
55271;BME280;41132;47.162;9.470;2023-04-02T06:25:37;96129.41;;;6.92;100.00
55271;BME280;41132;47.162;9.470;2023-04-02T06:30:40;96132.00;;;7.02;100.00
55271;BME280;41132;47.162;9.470;2023-04-02T06:33:10;96132.81;;;7.02;100.00
55271;BME280;41132;47.162;9.470;2023-04-02T06:35:39;96144.75;;;7.05;100.00
55271;BME280;41132;47.162;9.470;2023-04-02T06:38:06;96148.72;;;7.09;100.00
55271;BME280;41132;47.162;9.470;2023-04-02T06:40:43;96146.06;;;7.19;100.00
55271;BME280;41132;47.162;9.470;2023-04-02T06:43:25;96155.03;;;7.16;100.00
55271;BME280;41132;47.162;9.470;2023-04-02T06:45:58;96153.59;;;7.31;100.00
55271;BME280;41132;47.162;9.470;2023-04-02T06:48:26;96146.00;;;7.66;100.00
55271;BME280;41132;47.162;9.470;2023-04-02T06:51:02;96151.09;;;7.85;100.00
55271;BME280;41132;47.162;9.470;2023-04-02T06:53:38;96152.25;;;8.01;100.00
55271;BME280;41132;47.162;9.470;2023-04-02T06:56:21;96156.97;;;8.33;100.00
55271;BME280;41132;47.162;9.470;2023-04-02T06:58:49;96155.84;;;8.35;100.00
55271;BME280;41132;47.162;9.470;2023-04-02T07:01:25;96159.88;;;8.30;100.00
55271;BME280;41132;47.162;9.470;2023-04-02T07:03:51;96162.13;;;8.25;100.00
55271;BME280;41132;47.162;9.470;2023-04-02T07:06:19;96160.84;;;8.29;100.00
55271;BME280;41132;47.162;9.470;2023-04-02T07:08:45;96164.81;;;8.51;100.00
55271;BME280;41132;47.162;9.470;2023-04-02T07:11:13;96162.72;;;8.36;100.00
55271;BME280;41132;47.162;9.470;2023-04-02T07:13:39;96164.56;;;8.80;100.00
55271;BME280;41132;47.162;9.470;2023-04-02T07:16:07;96171.78;;;8.60;100.00
55271;BME280;41132;47.162;9.470;2023-04-02T07:28:56;96179.34;;;8.63;100.00
55271;BME280;41132;47.162;9.470;2023-04-02T07:31:24;96181.16;;;8.89;100.00
55271;BME280;41132;47.162;9.470;2023-04-02T07:33:51;96181.00;;;8.90;100.00
55271;BME280;41132;47.162;9.470;2023-04-02T07:36:20;96179.25;;;9.25;100.00
55271;BME280;41132;47.162;9.470;2023-04-02T07:38:45;96179.25;;;9.59;100.00
55271;BME280;41132;47.162;9.470;2023-04-02T07:41:11;96173.56;;;9.30;100.00
55271;BME280;41132;47.162;9.470;2023-04-02T07:43:37;96170.25;;;9.54;100.00
55271;BME280;41132;47.162;9.470;2023-04-02T07:46:03;96183.88;;;9.66;100.00
55271;BME280;41132;47.162;9.470;2023-04-02T07:48:29;96179.25;;;9.59;100.00
55271;BME280;41132;47.162;9.470;2023-04-02T07:50:54;96175.75;;;9.85;100.00
55271;BME280;41132;47.162;9.470;2023-04-02T07:55:55;96184.75;;;9.82;100.00
55271;BME280;41132;47.162;9.470;2023-04-02T07:58:20;96188.59;;;9.62;100.00
55271;BME280;41132;47.162;9.470;2023-04-02T08:00:46;96191.75;;;9.39;100.00
55271;BME280;41132;47.162;9.470;2023-04-02T08:03:12;96189.03;;;9.83;100.00
55271;BME280;41132;47.162;9.470;2023-04-02T08:05:37;96196.38;;;9.80;100.00
55271;BME280;41132;47.162;9.470;2023-04-02T08:08:03;96202.72;;;10.12;100.00
55271;BME280;41132;47.162;9.470;2023-04-02T08:10:28;96185.56;;;9.75;100.00
55271;BME280;41132;47.162;9.470;2023-04-02T08:12:54;96196.13;;;10.08;100.00
55271;BME280;41132;47.162;9.470;2023-04-02T08:15:20;96183.16;;;9.98;100.00
55271;BME280;41132;47.162;9.470;2023-04-02T08:17:45;96187.38;;;9.74;100.00
55271;BME280;41132;47.162;9.470;2023-04-02T08:20:17;96200.94;;;9.70;100.00
55271;BME280;41132;47.162;9.470;2023-04-02T08:22:47;96192.97;;;9.45;100.00
55271;BME280;41132;47.162;9.470;2023-04-02T08:25:13;96198.94;;;9.64;100.00
55271;BME280;41132;47.162;9.470;2023-04-02T08:27:39;96201.84;;;9.52;100.00
55271;BME280;41132;47.162;9.470;2023-04-02T08:30:07;96195.31;;;10.07;100.00
55271;BME280;41132;47.162;9.470;2023-04-02T08:35:09;96191.66;;;11.08;100.00
55271;BME280;41132;47.162;9.470;2023-04-02T08:37:35;96196.91;;;11.16;100.00
55271;BME280;41132;47.162;9.470;2023-04-02T08:40:01;96197.50;;;11.43;100.00
55271;BME280;41132;47.162;9.470;2023-04-02T08:45:19;96198.56;;;11.73;100.00
55271;BME280;41132;47.162;9.470;2023-04-02T08:47:49;96189.88;;;12.12;97.09
55271;BME280;41132;47.162;9.470;2023-04-02T08:52:51;96197.44;;;12.15;100.00
55271;BME280;41132;47.162;9.470;2023-04-02T08:55:32;96204.66;;;12.13;100.00
55271;BME280;41132;47.162;9.470;2023-04-02T09:00:38;96194.53;;;12.56;100.00
55271;BME280;41132;47.162;9.470;2023-04-02T09:03:14;96195.47;;;13.01;90.98
55271;BME280;41132;47.162;9.470;2023-04-02T09:05:43;96193.53;;;12.57;93.05
55271;BME280;41132;47.162;9.470;2023-04-02T09:08:16;96197.59;;;12.45;97.16
55271;BME280;41132;47.162;9.470;2023-04-02T09:11:23;96193.69;;;12.01;100.00
55271;BME280;41132;47.162;9.470;2023-04-02T09:13:59;96196.69;;;11.98;99.17
55271;BME280;41132;47.162;9.470;2023-04-02T09:16:48;96198.47;;;12.98;92.21
55271;BME280;41132;47.162;9.470;2023-04-02T09:22:22;96207.19;;;13.22;90.45
55271;BME280;41132;47.162;9.470;2023-04-02T09:24:59;96203.31;;;13.09;75.65
55271;BME280;41132;47.162;9.470;2023-04-02T09:27:30;96201.69;;;13.46;79.33
55271;BME280;41132;47.162;9.470;2023-04-02T09:30:04;96210.56;;;13.30;85.95
55271;BME280;41132;47.162;9.470;2023-04-02T09:37:42;96202.66;;;14.19;73.18
55271;BME280;41132;47.162;9.470;2023-04-02T09:42:43;96201.69;;;13.61;87.20
55271;BME280;41132;47.162;9.470;2023-04-02T09:45:22;96217.25;;;13.71;80.18
55271;BME280;41132;47.162;9.470;2023-04-02T09:47:56;96220.59;;;14.09;80.19
55271;BME280;41132;47.162;9.470;2023-04-02T09:50:31;96215.41;;;14.37;79.44
55271;BME280;41132;47.162;9.470;2023-04-02T09:52:58;96213.47;;;14.10;77.05
55271;BME280;41132;47.162;9.470;2023-04-02T09:55:40;96221.22;;;14.11;82.28
55271;BME280;41132;47.162;9.470;2023-04-02T09:58:15;96212.38;;;14.55;78.23
55271;BME280;41132;47.162;9.470;2023-04-02T10:00:49;96218.84;;;14.68;82.53
55271;BME280;41132;47.162;9.470;2023-04-02T10:03:29;96223.41;;;14.80;79.57
55271;BME280;41132;47.162;9.470;2023-04-02T10:11:30;96227.13;;;13.39;66.24
55271;BME280;41132;47.162;9.470;2023-04-02T10:14:25;96224.50;;;13.98;74.13
55271;BME280;41132;47.162;9.470;2023-04-02T10:17:14;96224.38;;;13.32;73.47
55271;BME280;41132;47.162;9.470;2023-04-02T10:19:46;96224.06;;;13.65;69.70
55271;BME280;41132;47.162;9.470;2023-04-02T10:22:18;96227.56;;;14.32;78.99
55271;BME280;41132;47.162;9.470;2023-04-02T10:24:43;96225.31;;;14.50;72.57
55271;BME280;41132;47.162;9.470;2023-04-02T10:30:17;96227.81;;;14.73;78.31
55271;BME280;41132;47.162;9.470;2023-04-02T10:32:54;96232.91;;;14.96;67.21
55271;BME280;41132;47.162;9.470;2023-04-02T10:51:43;96236.06;;;13.68;56.45
55271;BME280;41132;47.162;9.470;2023-04-02T10:57:33;96234.66;;;13.04;62.56
55271;BME280;41132;47.162;9.470;2023-04-02T11:07:52;96238.53;;;12.70;73.02
55271;BME280;41132;47.162;9.470;2023-04-02T11:10:19;96228.13;;;12.77;75.19
55271;BME280;41132;47.162;9.470;2023-04-02T11:13:12;96241.47;;;12.75;71.90
55271;BME280;41132;47.162;9.470;2023-04-02T11:15:39;96240.22;;;12.63;67.95
55271;BME280;41132;47.162;9.470;2023-04-02T11:18:05;96247.06;;;12.49;69.08
55271;BME280;41132;47.162;9.470;2023-04-02T11:23:18;96241.13;;;12.24;65.10
55271;BME280;41132;47.162;9.470;2023-04-02T11:25:45;96242.34;;;12.37;67.59
55271;BME280;41132;47.162;9.470;2023-04-02T11:28:25;96248.38;;;12.53;71.09
55271;BME280;41132;47.162;9.470;2023-04-02T11:30:52;96257.25;;;12.75;70.66
55271;BME280;41132;47.162;9.470;2023-04-02T11:33:38;96249.88;;;12.48;71.40
55271;BME280;41132;47.162;9.470;2023-04-02T11:44:42;96260.63;;;12.38;66.50
55271;BME280;41132;47.162;9.470;2023-04-02T11:47:32;96266.56;;;12.63;66.89
55271;BME280;41132;47.162;9.470;2023-04-02T11:49:59;96259.34;;;12.57;67.07
55271;BME280;41132;47.162;9.470;2023-04-02T11:52:34;96260.59;;;12.69;67.17
55271;BME280;41132;47.162;9.470;2023-04-02T11:57:49;96260.03;;;12.51;62.71
55271;BME280;41132;47.162;9.470;2023-04-02T12:00:28;96270.69;;;12.58;66.42
55271;BME280;41132;47.162;9.470;2023-04-02T12:03:06;96269.06;;;12.57;67.56
55271;BME280;41132;47.162;9.470;2023-04-02T12:05:41;96272.47;;;12.34;72.00
55271;BME280;41132;47.162;9.470;2023-04-02T12:11:00;96283.81;;;12.35;76.61
55271;BME280;41132;47.162;9.470;2023-04-02T12:16:05;96275.63;;;11.90;75.18
55271;BME280;41132;47.162;9.470;2023-04-02T12:18:32;96272.75;;;12.08;75.92
55271;BME280;41132;47.162;9.470;2023-04-02T12:20:58;96271.75;;;12.09;74.66
55271;BME280;41132;47.162;9.470;2023-04-02T12:23:28;96284.72;;;12.19;75.78
55271;BME280;41132;47.162;9.470;2023-04-02T12:26:00;96294.28;;;12.03;70.38
55271;BME280;41132;47.162;9.470;2023-04-02T12:28:27;96292.03;;;11.92;71.13
55271;BME280;41132;47.162;9.470;2023-04-02T12:31:14;96287.59;;;11.84;71.60
55271;BME280;41132;47.162;9.470;2023-04-02T12:33:43;96296.00;;;11.88;70.69
55271;BME280;41132;47.162;9.470;2023-04-02T12:38:46;96306.19;;;11.75;74.70
55271;BME280;41132;47.162;9.470;2023-04-02T12:41:31;96305.53;;;11.73;74.52
55271;BME280;41132;47.162;9.470;2023-04-02T12:46:23;96305.69;;;11.79;78.55
55271;BME280;41132;47.162;9.470;2023-04-02T12:48:51;96306.50;;;11.71;74.96
55271;BME280;41132;47.162;9.470;2023-04-02T12:51:17;96311.25;;;11.84;78.89
55271;BME280;41132;47.162;9.470;2023-04-02T12:53:48;96322.31;;;11.88;77.06
55271;BME280;41132;47.162;9.470;2023-04-02T12:56:22;96323.41;;;11.94;77.10
55271;BME280;41132;47.162;9.470;2023-04-02T12:58:53;96320.47;;;11.80;75.67
55271;BME280;41132;47.162;9.470;2023-04-02T13:01:21;96316.88;;;11.73;76.48
55271;BME280;41132;47.162;9.470;2023-04-02T13:06:26;96323.75;;;11.82;72.80
55271;BME280;41132;47.162;9.470;2023-04-02T13:08:53;96315.75;;;11.67;75.15
55271;BME280;41132;47.162;9.470;2023-04-02T13:11:19;96327.56;;;11.88;80.97
55271;BME280;41132;47.162;9.470;2023-04-02T13:13:47;96327.97;;;12.08;84.03
55271;BME280;41132;47.162;9.470;2023-04-02T13:18:43;96320.19;;;12.31;87.61
55271;BME280;41132;47.162;9.470;2023-04-02T13:23:41;96324.75;;;12.37;78.67
55271;BME280;41132;47.162;9.470;2023-04-02T13:26:17;96319.13;;;12.09;79.71
55271;BME280;41132;47.162;9.470;2023-04-02T13:31:44;96327.66;;;12.11;71.11
55271;BME280;41132;47.162;9.470;2023-04-02T13:34:10;96318.81;;;12.04;70.44
55271;BME280;41132;47.162;9.470;2023-04-02T13:36:35;96315.81;;;12.07;70.23
55271;BME280;41132;47.162;9.470;2023-04-02T13:39:01;96312.41;;;11.98;75.80
55271;BME280;41132;47.162;9.470;2023-04-02T13:41:29;96305.19;;;11.84;80.20
55271;BME280;41132;47.162;9.470;2023-04-02T13:43:57;96307.00;;;11.91;75.56
55271;BME280;41132;47.162;9.470;2023-04-02T13:46:33;96330.44;;;12.09;77.22
55271;BME280;41132;47.162;9.470;2023-04-02T13:48:59;96307.63;;;12.02;74.72
55271;BME280;41132;47.162;9.470;2023-04-02T13:51:36;96310.34;;;12.17;68.03
55271;BME280;41132;47.162;9.470;2023-04-02T13:54:07;96317.59;;;12.15;66.58
55271;BME280;41132;47.162;9.470;2023-04-02T13:56:34;96321.41;;;12.12;66.69
55271;BME280;41132;47.162;9.470;2023-04-02T13:59:00;96317.44;;;12.16;69.49
55271;BME280;41132;47.162;9.470;2023-04-02T14:01:25;96326.50;;;12.14;68.85
55271;BME280;41132;47.162;9.470;2023-04-02T14:03:52;96325.53;;;12.06;63.75
55271;BME280;41132;47.162;9.470;2023-04-02T14:15:06;96324.44;;;12.40;72.21
55271;BME280;41132;47.162;9.470;2023-04-02T14:29:03;96328.00;;;12.47;74.29
55271;BME280;41132;47.162;9.470;2023-04-02T14:34:25;96337.09;;;12.37;70.29
55271;BME280;41132;47.162;9.470;2023-04-02T14:39:47;96334.53;;;12.12;72.07
55271;BME280;41132;47.162;9.470;2023-04-02T14:42:16;96338.38;;;11.93;71.59
55271;BME280;41132;47.162;9.470;2023-04-02T14:44:52;96330.00;;;11.89;69.76
55271;BME280;41132;47.162;9.470;2023-04-02T14:47:45;96338.22;;;11.95;75.38
55271;BME280;41132;47.162;9.470;2023-04-02T14:50:25;96341.03;;;11.77;73.23
55271;BME280;41132;47.162;9.470;2023-04-02T14:52:57;96334.59;;;11.71;75.74
55271;BME280;41132;47.162;9.470;2023-04-02T14:55:45;96339.88;;;11.71;74.49
55271;BME280;41132;47.162;9.470;2023-04-02T14:58:23;96332.28;;;11.76;76.21
55271;BME280;41132;47.162;9.470;2023-04-02T15:00:55;96337.72;;;11.83;75.58
55271;BME280;41132;47.162;9.470;2023-04-02T15:03:24;96340.38;;;11.91;81.00
55271;BME280;41132;47.162;9.470;2023-04-02T15:05:57;96349.22;;;12.06;77.60
55271;BME280;41132;47.162;9.470;2023-04-02T15:08:27;96342.81;;;11.84;73.37
55271;BME280;41132;47.162;9.470;2023-04-02T15:13:45;96344.78;;;11.99;80.50
55271;BME280;41132;47.162;9.470;2023-04-02T15:16:20;96343.25;;;12.12;82.54
55271;BME280;41132;47.162;9.470;2023-04-02T15:18:55;96344.91;;;12.05;79.79
55271;BME280;41132;47.162;9.470;2023-04-02T15:24:01;96347.03;;;12.18;74.14
55271;BME280;41132;47.162;9.470;2023-04-02T15:26:48;96350.81;;;12.16;70.49
55271;BME280;41132;47.162;9.470;2023-04-02T15:32:23;96355.13;;;12.08;70.75
55271;BME280;41132;47.162;9.470;2023-04-02T15:45:56;96354.81;;;11.95;76.44
55271;BME280;41132;47.162;9.470;2023-04-02T15:48:35;96344.97;;;11.89;73.16
55271;BME280;41132;47.162;9.470;2023-04-02T15:54:17;96346.59;;;11.98;71.01
55271;BME280;41132;47.162;9.470;2023-04-02T16:05:01;96362.72;;;11.79;74.71
55271;BME280;41132;47.162;9.470;2023-04-02T16:07:44;96366.16;;;11.71;74.73
55271;BME280;41132;47.162;9.470;2023-04-02T16:12:46;96363.88;;;11.68;74.94
55271;BME280;41132;47.162;9.470;2023-04-02T16:15:17;96369.28;;;11.75;75.22
55271;BME280;41132;47.162;9.470;2023-04-02T16:17:48;96373.22;;;11.79;76.01
55271;BME280;41132;47.162;9.470;2023-04-02T16:20:22;96377.16;;;11.83;75.93
55271;BME280;41132;47.162;9.470;2023-04-02T16:22:56;96374.72;;;11.81;74.08
55271;BME280;41132;47.162;9.470;2023-04-02T16:25:24;96383.75;;;11.70;75.92
55271;BME280;41132;47.162;9.470;2023-04-02T16:28:18;96386.84;;;11.58;75.79
55271;BME280;41132;47.162;9.470;2023-04-02T16:31:05;96378.81;;;11.51;74.73
55271;BME280;41132;47.162;9.470;2023-04-02T16:33:40;96385.41;;;11.47;74.09
55271;BME280;41132;47.162;9.470;2023-04-02T16:38:57;96396.38;;;11.34;77.71
55271;BME280;41132;47.162;9.470;2023-04-02T16:52:31;96412.50;;;11.47;80.43
55271;BME280;41132;47.162;9.470;2023-04-02T16:55:19;96413.47;;;11.55;78.56
55271;BME280;41132;47.162;9.470;2023-04-02T17:00:56;96416.78;;;11.57;79.45
55271;BME280;41132;47.162;9.470;2023-04-02T17:09:00;96416.72;;;11.24;77.87
55271;BME280;41132;47.162;9.470;2023-04-02T17:11:46;96434.97;;;11.17;82.16
55271;BME280;41132;47.162;9.470;2023-04-02T17:14:22;96431.34;;;11.18;81.86
55271;BME280;41132;47.162;9.470;2023-04-02T17:16:50;96437.75;;;11.24;82.47
55271;BME280;41132;47.162;9.470;2023-04-02T17:19:17;96440.03;;;11.19;80.74
55271;BME280;41132;47.162;9.470;2023-04-02T17:21:48;96435.06;;;11.07;80.53
55271;BME280;41132;47.162;9.470;2023-04-02T17:26:58;96442.47;;;11.12;81.19
55271;BME280;41132;47.162;9.470;2023-04-02T17:29:33;96449.50;;;11.03;81.27
55271;BME280;41132;47.162;9.470;2023-04-02T17:32:02;96454.88;;;10.85;79.61
55271;BME280;41132;47.162;9.470;2023-04-02T17:34:28;96457.50;;;10.85;81.02
55271;BME280;41132;47.162;9.470;2023-04-02T17:40:07;96469.78;;;10.77;80.84
55271;BME280;41132;47.162;9.470;2023-04-02T17:42:51;96469.94;;;10.75;81.40
55271;BME280;41132;47.162;9.470;2023-04-02T17:45:30;96475.44;;;10.64;82.87
55271;BME280;41132;47.162;9.470;2023-04-02T17:48:01;96483.84;;;10.68;83.36
55271;BME280;41132;47.162;9.470;2023-04-02T17:53:36;96482.56;;;10.80;87.94
55271;BME280;41132;47.162;9.470;2023-04-02T17:59:12;96479.25;;;10.70;87.89
55271;BME280;41132;47.162;9.470;2023-04-02T18:07:14;96508.19;;;10.52;89.20
55271;BME280;41132;47.162;9.470;2023-04-02T18:09:51;96503.31;;;10.65;88.98
55271;BME280;41132;47.162;9.470;2023-04-02T18:12:39;96508.47;;;10.75;88.77
55271;BME280;41132;47.162;9.470;2023-04-02T18:18:25;96517.63;;;10.44;92.15